sensor_id;sensor_type;location;lat;lon;timestamp;pressure;altitude;pressure_sealevel;temperature
29701;BMP280;57917;51.380;-0.176;2022-07-29T00:02:05;101546.53;;;17.43
29701;BMP280;57917;51.380;-0.176;2022-07-29T00:08:12;101547.34;;;17.44
29701;BMP280;57917;51.380;-0.176;2022-07-29T00:13:59;101543.09;;;17.65
29701;BMP280;57917;51.380;-0.176;2022-07-29T00:19:46;101539.19;;;17.49
29701;BMP280;57917;51.380;-0.176;2022-07-29T00:25:33;101539.19;;;17.49
29701;BMP280;57917;51.380;-0.176;2022-07-29T00:31:20;101529.75;;;17.51
29701;BMP280;57917;51.380;-0.176;2022-07-29T00:37:07;101528.81;;;17.34
29701;BMP280;57917;51.380;-0.176;2022-07-29T00:42:54;101537.44;;;17.44
29701;BMP280;57917;51.380;-0.176;2022-07-29T00:48:41;101533.25;;;17.38
29701;BMP280;57917;51.380;-0.176;2022-07-29T00:54:37;101533.16;;;17.43
29701;BMP280;57917;51.380;-0.176;2022-07-29T01:00:30;101530.41;;;17.21
29701;BMP280;57917;51.380;-0.176;2022-07-29T01:06:18;101534.41;;;17.46
29701;BMP280;57917;51.380;-0.176;2022-07-29T01:12:05;101517.81;;;17.22
29701;BMP280;57917;51.380;-0.176;2022-07-29T01:30:02;101517.63;;;17.32
29701;BMP280;57917;51.380;-0.176;2022-07-29T01:35:51;101521.13;;;17.41
29701;BMP280;57917;51.380;-0.176;2022-07-29T01:41:41;101522.53;;;17.38
29701;BMP280;57917;51.380;-0.176;2022-07-29T01:48:02;101525.03;;;17.48
29701;BMP280;57917;51.380;-0.176;2022-07-29T01:54:16;101514.25;;;17.62
29701;BMP280;57917;51.380;-0.176;2022-07-29T02:00:05;101509.13;;;17.52
29701;BMP280;57917;51.380;-0.176;2022-07-29T02:05:57;101509.63;;;17.54
29701;BMP280;57917;51.380;-0.176;2022-07-29T02:11:48;101500.34;;;17.38
29701;BMP280;57917;51.380;-0.176;2022-07-29T02:17:42;101515.75;;;17.19
29701;BMP280;57917;51.380;-0.176;2022-07-29T02:23:32;101519.38;;;17.50
29701;BMP280;57917;51.380;-0.176;2022-07-29T02:29:37;101513.09;;;17.41
29701;BMP280;57917;51.380;-0.176;2022-07-29T02:35:25;101515.63;;;17.24
29701;BMP280;57917;51.380;-0.176;2022-07-29T02:41:16;101509.66;;;17.05
29701;BMP280;57917;51.380;-0.176;2022-07-29T02:47:11;101506.50;;;16.89
29701;BMP280;57917;51.380;-0.176;2022-07-29T02:53:17;101507.16;;;16.95
29701;BMP280;57917;51.380;-0.176;2022-07-29T02:59:09;101507.16;;;16.95
29701;BMP280;57917;51.380;-0.176;2022-07-29T03:04:59;101513.53;;;16.72
29701;BMP280;57917;51.380;-0.176;2022-07-29T03:10:47;101515.91;;;16.73
29701;BMP280;57917;51.380;-0.176;2022-07-29T03:16:35;101511.75;;;16.67
29701;BMP280;57917;51.380;-0.176;2022-07-29T03:22:27;101521.16;;;16.65
29701;BMP280;57917;51.380;-0.176;2022-07-29T03:28:14;101530.16;;;16.69
29701;BMP280;57917;51.380;-0.176;2022-07-29T03:34:04;101525.59;;;16.56
29701;BMP280;57917;51.380;-0.176;2022-07-29T03:39:52;101521.44;;;16.50
29701;BMP280;57917;51.380;-0.176;2022-07-29T03:45:42;101522.72;;;16.52
29701;BMP280;57917;51.380;-0.176;2022-07-29T03:51:30;101525.28;;;16.44
29701;BMP280;57917;51.380;-0.176;2022-07-29T03:57:23;101521.50;;;16.31
29701;BMP280;57917;51.380;-0.176;2022-07-29T04:03:11;101530.31;;;16.31
29701;BMP280;57917;51.380;-0.176;2022-07-29T04:09:01;101523.59;;;16.34
29701;BMP280;57917;51.380;-0.176;2022-07-29T04:14:48;101537.66;;;16.07
29701;BMP280;57917;51.380;-0.176;2022-07-29T04:20:35;101532.91;;;16.04
29701;BMP280;57917;51.380;-0.176;2022-07-29T04:26:21;101534.72;;;16.09
29701;BMP280;57917;51.380;-0.176;2022-07-29T04:32:08;101538.25;;;16.04
29701;BMP280;57917;51.380;-0.176;2022-07-29T04:37:55;101536.91;;;16.20
29701;BMP280;57917;51.380;-0.176;2022-07-29T04:43:42;101534.75;;;16.22
29701;BMP280;57917;51.380;-0.176;2022-07-29T04:49:29;101544.00;;;16.30
29701;BMP280;57917;51.380;-0.176;2022-07-29T04:55:16;101540.16;;;16.50
29701;BMP280;57917;51.380;-0.176;2022-07-29T05:01:08;101535.78;;;16.54
29701;BMP280;57917;51.380;-0.176;2022-07-29T05:06:55;101542.25;;;16.80
29701;BMP280;57917;51.380;-0.176;2022-07-29T05:12:42;101540.88;;;18.11
29701;BMP280;57917;51.380;-0.176;2022-07-29T05:18:32;101532.09;;;19.48
29701;BMP280;57917;51.380;-0.176;2022-07-29T05:24:22;101525.47;;;19.54
29701;BMP280;57917;51.380;-0.176;2022-07-29T05:30:09;101525.19;;;20.68
29701;BMP280;57917;51.380;-0.176;2022-07-29T05:35:59;101513.50;;;21.34
29701;BMP280;57917;51.380;-0.176;2022-07-29T05:41:46;101512.50;;;21.18
29701;BMP280;57917;51.380;-0.176;2022-07-29T05:47:37;101519.38;;;20.00
29701;BMP280;57917;51.380;-0.176;2022-07-29T05:53:24;101531.75;;;19.07
29701;BMP280;57917;51.380;-0.176;2022-07-29T05:59:11;101539.44;;;18.66
29701;BMP280;57917;51.380;-0.176;2022-07-29T06:05:12;101547.19;;;18.37
29701;BMP280;57917;51.380;-0.176;2022-07-29T06:11:14;101554.09;;;18.29
29701;BMP280;57917;51.380;-0.176;2022-07-29T06:17:04;101564.78;;;18.60
29701;BMP280;57917;51.380;-0.176;2022-07-29T06:22:54;101564.59;;;18.48
29701;BMP280;57917;51.380;-0.176;2022-07-29T06:28:41;101574.84;;;18.46
29701;BMP280;57917;51.380;-0.176;2022-07-29T06:34:29;101574.09;;;18.32
29701;BMP280;57917;51.380;-0.176;2022-07-29T06:40:16;101576.47;;;18.64
29701;BMP280;57917;51.380;-0.176;2022-07-29T06:46:22;101587.94;;;18.95
29701;BMP280;57917;51.380;-0.176;2022-07-29T06:52:10;101583.19;;;18.92
29701;BMP280;57917;51.380;-0.176;2022-07-29T06:57:57;101581.28;;;18.84
29701;BMP280;57917;51.380;-0.176;2022-07-29T07:03:54;101585.78;;;19.14
29701;BMP280;57917;51.380;-0.176;2022-07-29T07:09:43;101587.16;;;19.03
29701;BMP280;57917;51.380;-0.176;2022-07-29T07:15:38;101588.66;;;19.35
29701;BMP280;57917;51.380;-0.176;2022-07-29T07:21:26;101586.75;;;19.69
29701;BMP280;57917;51.380;-0.176;2022-07-29T07:27:26;101592.13;;;19.86
29701;BMP280;57917;51.380;-0.176;2022-07-29T07:33:47;101584.41;;;19.68
29701;BMP280;57917;51.380;-0.176;2022-07-29T07:39:37;101595.88;;;20.02
29701;BMP280;57917;51.380;-0.176;2022-07-29T07:45:29;101591.13;;;20.16
29701;BMP280;57917;51.380;-0.176;2022-07-29T07:51:16;101584.78;;;20.21
29701;BMP280;57917;51.380;-0.176;2022-07-29T07:57:05;101584.41;;;20.39
29701;BMP280;57917;51.380;-0.176;2022-07-29T08:02:57;101587.22;;;20.51
29701;BMP280;57917;51.380;-0.176;2022-07-29T08:08:47;101584.50;;;21.30
29701;BMP280;57917;51.380;-0.176;2022-07-29T08:15:04;101567.56;;;22.06
29701;BMP280;57917;51.380;-0.176;2022-07-29T08:20:53;101576.25;;;22.48
29701;BMP280;57917;51.380;-0.176;2022-07-29T08:26:52;101575.25;;;22.53
29701;BMP280;57917;51.380;-0.176;2022-07-29T08:32:47;101574.44;;;23.16
29701;BMP280;57917;51.380;-0.176;2022-07-29T08:38:43;101568.31;;;23.74
29701;BMP280;57917;51.380;-0.176;2022-07-29T08:44:31;101575.06;;;24.11
29701;BMP280;57917;51.380;-0.176;2022-07-29T08:50:20;101568.25;;;24.86
29701;BMP280;57917;51.380;-0.176;2022-07-29T08:56:11;101568.25;;;25.05
29701;BMP280;57917;51.380;-0.176;2022-07-29T09:02:03;101554.63;;;23.67
29701;BMP280;57917;51.380;-0.176;2022-07-29T09:07:55;101559.84;;;24.91
29701;BMP280;57917;51.380;-0.176;2022-07-29T09:13:45;101560.44;;;25.00
29701;BMP280;57917;51.380;-0.176;2022-07-29T09:19:42;101547.03;;;25.29
29701;BMP280;57917;51.380;-0.176;2022-07-29T09:25:33;101561.53;;;24.80
29701;BMP280;57917;51.380;-0.176;2022-07-29T09:31:31;101547.25;;;25.85
29701;BMP280;57917;51.380;-0.176;2022-07-29T09:37:29;101541.91;;;25.43
29701;BMP280;57917;51.380;-0.176;2022-07-29T09:43:16;101543.75;;;26.36
29701;BMP280;57917;51.380;-0.176;2022-07-29T09:49:11;101540.34;;;26.43
29701;BMP280;57917;51.380;-0.176;2022-07-29T09:55:06;101543.94;;;26.54
29701;BMP280;57917;51.380;-0.176;2022-07-29T10:00:54;101544.56;;;27.03
29701;BMP280;57917;51.380;-0.176;2022-07-29T10:07:02;101552.66;;;27.83
29701;BMP280;57917;51.380;-0.176;2022-07-29T10:13:03;101546.28;;;26.85
29701;BMP280;57917;51.380;-0.176;2022-07-29T10:18:56;101548.97;;;27.18
29701;BMP280;57917;51.380;-0.176;2022-07-29T10:24:45;101537.75;;;26.24
29701;BMP280;57917;51.380;-0.176;2022-07-29T10:30:39;101543.50;;;26.78
29701;BMP280;57917;51.380;-0.176;2022-07-29T10:42:28;101551.56;;;27.07
29701;BMP280;57917;51.380;-0.176;2022-07-29T10:49:08;101541.44;;;27.95
29701;BMP280;57917;51.380;-0.176;2022-07-29T10:55:09;101535.84;;;27.70
29701;BMP280;57917;51.380;-0.176;2022-07-29T11:01:32;101536.63;;;27.78
29701;BMP280;57917;51.380;-0.176;2022-07-29T11:07:29;101524.38;;;27.47
29701;BMP280;57917;51.380;-0.176;2022-07-29T11:13:49;101530.38;;;27.23
29701;BMP280;57917;51.380;-0.176;2022-07-29T11:19:41;101543.78;;;27.02
29701;BMP280;57917;51.380;-0.176;2022-07-29T11:25:36;101533.03;;;27.20
29701;BMP280;57917;51.380;-0.176;2022-07-29T11:37:35;101529.19;;;28.32
29701;BMP280;57917;51.380;-0.176;2022-07-29T11:43:47;101526.09;;;27.19
29701;BMP280;57917;51.380;-0.176;2022-07-29T11:49:57;101533.91;;;27.71
29701;BMP280;57917;51.380;-0.176;2022-07-29T11:55:54;101526.03;;;27.62
29701;BMP280;57917;51.380;-0.176;2022-07-29T12:01:58;101521.41;;;27.63
29701;BMP280;57917;51.380;-0.176;2022-07-29T12:08:25;101513.78;;;28.75
29701;BMP280;57917;51.380;-0.176;2022-07-29T12:14:48;101527.81;;;28.77
29701;BMP280;57917;51.380;-0.176;2022-07-29T12:20:39;101527.41;;;27.39
29701;BMP280;57917;51.380;-0.176;2022-07-29T12:26:30;101519.84;;;26.82
29701;BMP280;57917;51.380;-0.176;2022-07-29T12:32:23;101516.13;;;26.64
29701;BMP280;57917;51.380;-0.176;2022-07-29T12:38:21;101508.97;;;27.18
29701;BMP280;57917;51.380;-0.176;2022-07-29T12:44:11;101515.97;;;28.31
29701;BMP280;57917;51.380;-0.176;2022-07-29T12:50:20;101504.25;;;28.16
29701;BMP280;57917;51.380;-0.176;2022-07-29T12:56:23;101507.31;;;27.07
29701;BMP280;57917;51.380;-0.176;2022-07-29T13:02:29;101499.41;;;26.95
29701;BMP280;57917;51.380;-0.176;2022-07-29T13:08:17;101503.75;;;27.43
29701;BMP280;57917;51.380;-0.176;2022-07-29T13:14:10;101501.22;;;28.35
29701;BMP280;57917;51.380;-0.176;2022-07-29T13:20:15;101502.84;;;28.57
29701;BMP280;57917;51.380;-0.176;2022-07-29T13:26:10;101500.69;;;27.48
29701;BMP280;57917;51.380;-0.176;2022-07-29T13:32:06;101493.91;;;26.84
29701;BMP280;57917;51.380;-0.176;2022-07-29T13:37:53;101491.09;;;26.77
29701;BMP280;57917;51.380;-0.176;2022-07-29T13:43:40;101487.41;;;26.59
29701;BMP280;57917;51.380;-0.176;2022-07-29T13:49:27;101497.00;;;26.53
29701;BMP280;57917;51.380;-0.176;2022-07-29T13:55:14;101493.69;;;27.47
29701;BMP280;57917;51.380;-0.176;2022-07-29T14:01:04;101493.34;;;28.20
29701;BMP280;57917;51.380;-0.176;2022-07-29T14:06:51;101491.50;;;28.45
29701;BMP280;57917;51.380;-0.176;2022-07-29T14:12:38;101490.00;;;28.54
29701;BMP280;57917;51.380;-0.176;2022-07-29T14:18:25;101476.59;;;28.11
29701;BMP280;57917;51.380;-0.176;2022-07-29T14:24:14;101485.88;;;28.03
29701;BMP280;57917;51.380;-0.176;2022-07-29T14:30:07;101482.25;;;27.81
29701;BMP280;57917;51.380;-0.176;2022-07-29T14:35:54;101468.94;;;27.66
29701;BMP280;57917;51.380;-0.176;2022-07-29T14:41:46;101476.78;;;27.71
29701;BMP280;57917;51.380;-0.176;2022-07-29T14:47:33;101483.13;;;27.99
29701;BMP280;57917;51.380;-0.176;2022-07-29T14:53:20;101470.78;;;28.19
29701;BMP280;57917;51.380;-0.176;2022-07-29T14:59:07;101469.88;;;27.91
29701;BMP280;57917;51.380;-0.176;2022-07-29T15:04:54;101456.84;;;27.09
29701;BMP280;57917;51.380;-0.176;2022-07-29T15:10:41;101460.06;;;26.82
29701;BMP280;57917;51.380;-0.176;2022-07-29T15:16:27;101454.59;;;27.18
29701;BMP280;57917;51.380;-0.176;2022-07-29T15:22:15;101445.94;;;27.53
29701;BMP280;57917;51.380;-0.176;2022-07-29T15:28:07;101446.94;;;27.31
29701;BMP280;57917;51.380;-0.176;2022-07-29T15:33:54;101440.59;;;27.70
29701;BMP280;57917;51.380;-0.176;2022-07-29T15:39:46;101443.44;;;27.30
29701;BMP280;57917;51.380;-0.176;2022-07-29T15:45:38;101466.13;;;27.52
29701;BMP280;57917;51.380;-0.176;2022-07-29T15:51:27;101454.66;;;27.83
29701;BMP280;57917;51.380;-0.176;2022-07-29T15:57:15;101464.41;;;27.87
29701;BMP280;57917;51.380;-0.176;2022-07-29T16:03:02;101459.38;;;27.86
29701;BMP280;57917;51.380;-0.176;2022-07-29T16:08:49;101466.78;;;27.96
29701;BMP280;57917;51.380;-0.176;2022-07-29T16:14:42;101459.66;;;27.74
29701;BMP280;57917;51.380;-0.176;2022-07-29T16:21:07;101454.66;;;27.29
29701;BMP280;57917;51.380;-0.176;2022-07-29T16:34:57;101449.16;;;27.72
29701;BMP280;57917;51.380;-0.176;2022-07-29T16:42:14;101444.56;;;27.87
29701;BMP280;57917;51.380;-0.176;2022-07-29T17:04:25;101437.88;;;27.13
29701;BMP280;57917;51.380;-0.176;2022-07-29T17:10:54;101438.69;;;27.24
29701;BMP280;57917;51.380;-0.176;2022-07-29T17:17:36;101445.41;;;26.90
29701;BMP280;57917;51.380;-0.176;2022-07-29T17:24:05;101447.84;;;27.02
29701;BMP280;57917;51.380;-0.176;2022-07-29T17:30:29;101452.97;;;27.10
29701;BMP280;57917;51.380;-0.176;2022-07-29T17:37:12;101453.69;;;27.07
29701;BMP280;57917;51.380;-0.176;2022-07-29T17:43:40;101450.16;;;27.00
29701;BMP280;57917;51.380;-0.176;2022-07-29T17:49:41;101449.06;;;27.08
29701;BMP280;57917;51.380;-0.176;2022-07-29T17:55:38;101457.91;;;27.01
29701;BMP280;57917;51.380;-0.176;2022-07-29T18:01:33;101466.06;;;26.61
29701;BMP280;57917;51.380;-0.176;2022-07-29T18:14:20;101476.00;;;26.17
29701;BMP280;57917;51.380;-0.176;2022-07-29T18:58:26;101486.22;;;24.85
29701;BMP280;57917;51.380;-0.176;2022-07-29T19:18:37;101504.13;;;24.36
29701;BMP280;57917;51.380;-0.176;2022-07-29T19:25:47;101518.38;;;24.18
29701;BMP280;57917;51.380;-0.176;2022-07-29T19:31:42;101523.72;;;24.14
29701;BMP280;57917;51.380;-0.176;2022-07-29T19:37:30;101536.94;;;23.85
29701;BMP280;57917;51.380;-0.176;2022-07-29T19:43:25;101552.16;;;23.62
29701;BMP280;57917;51.380;-0.176;2022-07-29T19:49:32;101559.78;;;23.29
29701;BMP280;57917;51.380;-0.176;2022-07-29T19:55:22;101564.56;;;23.08
29701;BMP280;57917;51.380;-0.176;2022-07-29T20:01:09;101579.66;;;22.97
29701;BMP280;57917;51.380;-0.176;2022-07-29T20:06:57;101578.72;;;22.77
29701;BMP280;57917;51.380;-0.176;2022-07-29T20:12:49;101596.81;;;22.77
29701;BMP280;57917;51.380;-0.176;2022-07-29T20:18:39;101593.81;;;22.66
29701;BMP280;57917;51.380;-0.176;2022-07-29T20:24:26;101601.00;;;22.62
29701;BMP280;57917;51.380;-0.176;2022-07-29T20:30:13;101602.81;;;22.46
29701;BMP280;57917;51.380;-0.176;2022-07-29T20:36:00;101601.34;;;22.49
29701;BMP280;57917;51.380;-0.176;2022-07-29T20:41:47;101616.63;;;22.45
29701;BMP280;57917;51.380;-0.176;2022-07-29T20:47:34;101613.34;;;22.15
29701;BMP280;57917;51.380;-0.176;2022-07-29T20:53:21;101623.22;;;22.11
29701;BMP280;57917;51.380;-0.176;2022-07-29T20:59:09;101622.94;;;21.92
29701;BMP280;57917;51.380;-0.176;2022-07-29T21:04:57;101620.75;;;21.73
29701;BMP280;57917;51.380;-0.176;2022-07-29T21:10:46;101611.94;;;21.64
29701;BMP280;57917;51.380;-0.176;2022-07-29T21:16:33;101605.84;;;21.55
29701;BMP280;57917;51.380;-0.176;2022-07-29T21:22:20;101604.22;;;21.42
29701;BMP280;57917;51.380;-0.176;2022-07-29T21:28:08;101613.81;;;21.31
29701;BMP280;57917;51.380;-0.176;2022-07-29T21:34:17;101619.84;;;21.28
29701;BMP280;57917;51.380;-0.176;2022-07-29T21:40:05;101632.13;;;21.17
29701;BMP280;57917;51.380;-0.176;2022-07-29T21:45:53;101641.25;;;21.04
29701;BMP280;57917;51.380;-0.176;2022-07-29T21:51:43;101648.72;;;21.28
29701;BMP280;57917;51.380;-0.176;2022-07-29T21:57:33;101633.69;;;21.18
29701;BMP280;57917;51.380;-0.176;2022-07-29T22:03:22;101631.84;;;21.10
29701;BMP280;57917;51.380;-0.176;2022-07-29T22:09:09;101638.38;;;20.80
29701;BMP280;57917;51.380;-0.176;2022-07-29T22:14:57;101644.97;;;20.83
29701;BMP280;57917;51.380;-0.176;2022-07-29T22:20:45;101661.59;;;20.85
29701;BMP280;57917;51.380;-0.176;2022-07-29T22:26:36;101651.94;;;20.92
29701;BMP280;57917;51.380;-0.176;2022-07-29T22:32:24;101655.13;;;20.77
29701;BMP280;57917;51.380;-0.176;2022-07-29T22:38:11;101655.66;;;20.71
29701;BMP280;57917;51.380;-0.176;2022-07-29T22:43:57;101654.59;;;20.63
29701;BMP280;57917;51.380;-0.176;2022-07-29T22:49:44;101655.84;;;20.66
29701;BMP280;57917;51.380;-0.176;2022-07-29T22:55:32;101659.34;;;20.58
29701;BMP280;57917;51.380;-0.176;2022-07-29T23:01:18;101655.56;;;20.50
29701;BMP280;57917;51.380;-0.176;2022-07-29T23:07:23;101652.41;;;20.48
29701;BMP280;57917;51.380;-0.176;2022-07-29T23:13:10;101653.69;;;20.42
29701;BMP280;57917;51.380;-0.176;2022-07-29T23:18:57;101658.28;;;20.42
29701;BMP280;57917;51.380;-0.176;2022-07-29T23:24:44;101656.28;;;20.30
29701;BMP280;57917;51.380;-0.176;2022-07-29T23:30:31;101651.72;;;20.22
29701;BMP280;57917;51.380;-0.176;2022-07-29T23:36:17;101648.34;;;20.25
29701;BMP280;57917;51.380;-0.176;2022-07-29T23:42:06;101648.56;;;20.03
29701;BMP280;57917;51.380;-0.176;2022-07-29T23:47:53;101644.25;;;20.02
29701;BMP280;57917;51.380;-0.176;2022-07-29T23:53:40;101643.53;;;20.02
29701;BMP280;57917;51.380;-0.176;2022-07-29T23:59:39;101651.38;;;19.90
